Time;durP1;ratioP1;P1;durP2;ratioP2;P2;SDS_P1;SDS_P2;PMS_P1;PMS_P2;Temp;Humidity;BMP_temperature;BMP_pressure;BME280_temperature;BME280_humidity;BME280_pressure;Samples;Min_cycle;Max_cycle;Signal;HPM_P1;HPM_P2
2021/07/10 05:32:02;;;;;;;4.20;2.77;;;18.10;99.90;;;;;;2905229;23;20349;-79
2021/07/10 05:34:28;;;;;;;4.33;2.80;;;18.30;99.90;;;;;;4993156;28;20223;-79
2021/07/10 05:36:56;;;;;;;4.90;2.80;;;18.50;99.90;;;;;;4993651;28;20209;-80
2021/07/10 05:39:23;;;;;;;5.03;3.17;;;18.50;99.90;;;;;;4993226;28;20230;-80
2021/07/10 05:41:49;;;;;;;4.97;2.57;;;18.60;99.90;;;;;;4993509;28;20219;-80
2021/07/10 05:44:16;;;;;;;6.03;3.10;;;18.80;99.90;;;;;;4993674;28;20214;-81
2021/07/10 05:46:43;;;;;;;7.73;3.13;;;19.00;99.90;;;;;;4993574;28;20223;-80
2021/07/10 05:49:11;;;;;;;4.82;3.10;;;19.00;99.90;;;;;;4993293;28;20709;-81
2021/07/10 05:51:38;;;;;;;4.73;3.30;;;19.10;99.90;;;;;;4993435;28;20596;-80
2021/07/10 05:54:05;;;;;;;4.90;2.77;;;19.20;99.90;;;;;;4993731;28;20202;-80
2021/07/10 05:56:32;;;;;;;6.73;3.03;;;19.30;99.90;;;;;;4993376;28;20651;-80
2021/07/10 05:58:59;;;;;;;5.07;3.07;;;19.30;99.90;;;;;;4993431;28;20232;-80
2021/07/10 06:01:26;;;;;;;4.60;2.70;;;19.20;99.90;;;;;;4992873;28;20210;-80
2021/07/10 06:03:52;;;;;;;4.90;2.92;;;19.30;99.90;;;;;;4992966;28;20202;-80
2021/07/10 06:06:20;;;;;;;6.50;2.55;;;19.40;99.90;;;;;;4993456;28;20206;-80
2021/07/10 06:08:47;;;;;;;4.03;2.67;;;19.50;99.90;;;;;;4993253;28;20700;-80
2021/07/10 06:11:15;;;;;;;4.90;2.97;;;19.60;99.90;;;;;;4996744;28;20238;-80
2021/07/10 06:13:42;;;;;;;3.22;2.47;;;19.80;99.90;;;;;;4997765;28;20198;-81
2021/07/10 06:16:10;;;;;;;4.97;2.83;;;19.80;99.90;;;;;;4997374;28;20549;-80
2021/07/10 06:18:36;;;;;;;6.55;3.13;;;19.90;99.90;;;;;;4996815;28;20226;-81
2021/07/10 06:21:03;;;;;;;6.15;2.67;;;20.10;99.90;;;;;;4997346;28;20217;-81
2021/07/10 06:23:31;;;;;;;4.05;2.70;;;20.20;99.90;;;;;;4996917;28;20206;-80
2021/07/10 06:25:58;;;;;;;4.13;3.03;;;20.30;99.90;;;;;;4996721;28;20210;-80
2021/07/10 06:28:25;;;;;;;4.65;2.70;;;20.50;99.90;;;;;;4996888;28;20672;-80
2021/07/10 06:30:52;;;;;;;3.95;2.63;;;20.60;99.90;;;;;;4996764;28;20755;-81
2021/07/10 06:33:18;;;;;;;4.47;2.67;;;20.80;99.90;;;;;;4997022;28;20219;-80
2021/07/10 06:35:45;;;;;;;4.53;2.92;;;20.90;99.90;;;;;;4996647;28;20206;-79
2021/07/10 06:38:12;;;;;;;4.50;2.70;;;21.10;99.90;;;;;;4996626;28;20214;-80
2021/07/10 06:40:40;;;;;;;5.18;2.65;;;21.20;99.90;;;;;;4996526;28;20210;-80
2021/07/10 06:43:07;;;;;;;4.03;2.42;;;21.40;99.90;;;;;;4991732;28;20203;-77
2021/07/10 06:45:34;;;;;;;5.82;2.88;;;21.60;99.90;;;;;;4996173;28;20206;-76
2021/07/10 06:48:01;;;;;;;3.42;2.63;;;21.80;99.90;;;;;;4996303;28;20210;-77
2021/07/10 06:50:28;;;;;;;4.22;2.65;;;22.00;99.90;;;;;;4996841;28;20693;-77
2021/07/10 06:52:55;;;;;;;5.80;2.88;;;22.20;99.90;;;;;;4996590;28;20550;-77
2021/07/10 06:55:22;;;;;;;6.57;3.28;;;22.30;99.90;;;;;;4996639;28;20202;-78
2021/07/10 06:57:50;;;;;;;8.77;3.10;;;22.20;99.90;;;;;;4996387;28;20206;-78
2021/07/10 07:00:19;;;;;;;7.22;2.85;;;22.20;99.90;;;;;;4995981;28;20233;-76
2021/07/10 07:02:46;;;;;;;6.88;3.25;;;22.30;99.90;;;;;;4995715;28;20218;-77
2021/07/10 07:05:13;;;;;;;8.85;3.88;;;22.20;99.90;;;;;;4995598;28;20202;-78
2021/07/10 07:07:40;;;;;;;10.05;3.45;;;22.30;99.90;;;;;;4995909;28;20247;-76
2021/07/10 07:10:09;;;;;;;8.23;3.40;;;22.40;99.90;;;;;;4996600;28;20226;-77
2021/07/10 07:12:36;;;;;;;8.35;3.80;;;22.50;99.90;;;;;;4995473;28;20234;-76
2021/07/10 07:15:05;;;;;;;9.32;3.80;;;22.60;99.90;;;;;;4995310;28;20206;-77
2021/07/10 07:17:32;;;;;;;7.53;3.42;;;22.70;99.90;;;;;;4994430;28;20315;-77
2021/07/10 07:19:58;;;;;;;8.55;3.53;;;22.60;99.90;;;;;;4995654;28;20230;-77
2021/07/10 07:22:25;;;;;;;8.95;3.30;;;22.70;99.90;;;;;;4995900;28;20646;-76
2021/07/10 07:24:52;;;;;;;6.90;3.10;;;22.70;99.90;;;;;;4996089;28;20233;-79
2021/07/10 07:27:19;;;;;;;6.55;3.60;;;22.60;99.90;;;;;;4996779;28;20210;-78
2021/07/10 07:29:46;;;;;;;8.98;3.50;;;22.60;99.90;;;;;;4995293;28;20226;-77
2021/07/10 07:32:14;;;;;;;9.32;3.03;;;22.50;99.90;;;;;;4994620;28;20696;-77
2021/07/10 07:34:41;;;;;;;6.53;3.00;;;22.70;99.90;;;;;;4994938;28;20207;-76
2021/07/10 07:37:07;;;;;;;8.55;3.45;;;22.80;99.90;;;;;;4994965;28;20202;-76
2021/07/10 07:39:34;;;;;;;8.57;3.08;;;23.00;99.90;;;;;;4994768;28;20233;-78
2021/07/10 07:42:01;;;;;;;7.18;3.00;;;23.60;99.90;;;;;;4994954;28;20217;-81
2021/07/10 07:44:28;;;;;;;5.50;2.72;;;24.40;99.90;;;;;;4995473;28;20206;-82
2021/07/10 07:46:55;;;;;;;6.97;2.90;;;25.10;99.90;;;;;;4977982;28;20214;-81
2021/07/10 07:49:23;;;;;;;5.03;2.50;;;25.20;99.90;;;;;;4995984;28;20230;-77
2021/07/10 07:51:49;;;;;;;4.93;2.38;;;24.80;99.90;;;;;;4995097;28;20248;-77
2021/07/10 07:54:16;;;;;;;6.93;3.10;;;25.20;99.90;;;;;;4995293;28;20206;-78
2021/07/10 07:56:43;;;;;;;4.80;2.80;;;25.60;99.90;;;;;;4995016;28;20688;-83
2021/07/10 07:59:10;;;;;;;6.95;2.80;;;25.60;99.90;;;;;;4995007;28;20231;-78
2021/07/10 08:01:37;;;;;;;6.03;2.38;;;25.60;99.90;;;;;;4994746;28;20206;-78
2021/07/10 08:04:04;;;;;;;5.82;2.80;;;25.90;99.90;;;;;;4994478;28;20207;-78
2021/07/10 08:06:32;;;;;;;5.22;3.10;;;26.40;99.90;;;;;;4994355;28;20206;-76
2021/07/10 08:08:59;;;;;;;6.75;3.25;;;26.70;99.90;;;;;;4994812;28;20233;-77
2021/07/10 08:11:26;;;;;;;4.70;2.58;;;26.40;99.90;;;;;;4994993;28;20226;-74
2021/07/10 08:13:53;;;;;;;6.32;2.40;;;26.70;99.90;;;;;;4994684;28;20207;-77
2021/07/10 08:16:20;;;;;;;5.50;2.40;;;26.50;99.90;;;;;;4994969;28;20202;-83
2021/07/10 08:18:47;;;;;;;3.78;2.08;;;26.90;99.90;;;;;;4994844;28;20230;-74
2021/07/10 08:21:14;;;;;;;5.30;2.17;;;27.50;99.90;;;;;;4994862;28;20210;-73
2021/07/10 08:23:42;;;;;;;4.03;2.15;;;27.70;99.90;;;;;;4994426;28;20206;-76
2021/07/10 08:26:09;;;;;;;3.83;2.10;;;27.00;99.90;;;;;;4994889;28;20217;-74
2021/07/10 08:28:36;;;;;;;4.75;2.30;;;27.20;99.90;;;;;;4994830;28;20609;-74
2021/07/10 08:31:04;;;;;;;5.35;1.95;;;26.90;99.90;;;;;;4994378;28;20234;-76
2021/07/10 08:33:31;;;;;;;2.20;1.67;;;26.40;99.90;;;;;;4993394;28;20561;-74
2021/07/10 08:35:58;;;;;;;4.28;1.75;;;26.40;99.90;;;;;;4994483;28;20210;-74
2021/07/10 08:38:25;;;;;;;2.83;1.58;;;26.50;99.90;;;;;;4994395;28;20203;-75
2021/07/10 08:40:54;;;;;;;2.92;2.00;;;27.00;99.90;;;;;;4994267;28;20213;-76
2021/07/10 08:43:22;;;;;;;4.07;1.95;;;27.50;99.90;;;;;;4994005;28;20213;-74
2021/07/10 08:45:50;;;;;;;3.03;1.70;;;28.00;99.90;;;;;;4994531;28;20215;-77
2021/07/10 08:48:17;;;;;;;3.45;2.05;;;28.10;99.90;;;;;;4993950;28;20217;-81
2021/07/10 08:50:45;;;;;;;3.63;2.20;;;28.00;99.90;;;;;;4994041;28;20234;-74
2021/07/10 08:53:12;;;;;;;3.28;1.80;;;28.50;99.90;;;;;;4993678;28;20211;-74
2021/07/10 08:55:39;;;;;;;3.22;2.10;;;28.30;99.90;;;;;;4993730;28;20209;-75
2021/07/10 08:58:07;;;;;;;2.78;2.00;;;27.40;99.90;;;;;;4994008;28;20238;-73
2021/07/10 09:00:37;;;;;;;2.10;1.50;;;26.90;99.90;;;;;;4993922;28;20257;-74
2021/07/10 09:03:06;;;;;;;2.50;1.42;;;27.30;99.90;;;;;;4993289;28;20213;-76
2021/07/10 09:05:33;;;;;;;2.28;1.38;;;27.60;99.90;;;;;;4993532;28;20210;-75
2021/07/10 09:08:22;;;;;;;2.40;1.30;;;28.40;99.90;;;;;;4993613;28;20672;-74
2021/07/10 09:10:59;;;;;;;1.75;1.20;;;28.50;98.20;;;;;;4983773;28;20252;-74
2021/07/10 09:13:36;;;;;;;2.30;1.52;;;28.50;98.70;;;;;;4993711;28;20210;-75
2021/07/10 09:16:09;;;;;;;3.30;1.92;;;28.80;98.70;;;;;;4993928;28;20285;-78
2021/07/10 09:18:41;;;;;;;2.40;1.50;;;29.10;98.60;;;;;;4987872;28;20231;-79
2021/07/10 09:21:08;;;;;;;2.40;1.35;;;28.70;96.60;;;;;;4993731;28;20262;-80
2021/07/10 09:23:40;;;;;;;2.05;1.40;;;28.00;97.40;;;;;;4993643;28;20275;-78
2021/07/10 09:26:15;;;;;;;2.40;1.73;;;27.70;99.00;;;;;;4993763;28;20210;-78
2021/07/10 09:28:44;;;;;;;2.60;1.60;;;28.40;98.00;;;;;;4993565;28;20233;-79
2021/07/10 09:31:16;;;;;;;1.92;1.10;;;29.00;98.30;;;;;;4993013;28;20378;-80
2021/07/10 09:33:43;;;;;;;1.83;1.10;;;28.70;95.40;;;;;;4993382;28;20546;-79
2021/07/10 09:36:10;;;;;;;2.08;1.40;;;28.30;96.80;;;;;;4993152;28;20206;-80
2021/07/10 09:38:37;;;;;;;1.88;1.20;;;28.30;96.80;;;;;;4993636;28;20572;-79
2021/07/10 09:41:05;;;;;;;1.40;1.17;;;28.20;97.20;;;;;;4993309;28;20564;-79
2021/07/10 09:43:35;;;;;;;3.10;1.17;;;28.30;96.00;;;;;;4993445;28;20202;-80
2021/07/10 09:46:08;;;;;;;2.15;1.23;;;28.40;97.20;;;;;;4997316;28;20296;-80
2021/07/10 09:48:38;;;;;;;1.60;1.20;;;28.20;97.50;;;;;;4997093;28;20650;-80
2021/07/10 09:51:18;;;;;;;1.58;1.15;;;27.50;97.40;;;;;;4997266;28;20210;-79
2021/07/10 09:54:02;;;;;;;1.48;1.00;;;27.60;96.60;;;;;;4997317;28;20217;-79
2021/07/10 09:56:29;;;;;;;2.28;1.13;;;27.80;96.40;;;;;;4997095;28;20202;-79
2021/07/10 09:58:56;;;;;;;4.30;1.20;;;27.60;96.50;;;;;;5001651;28;20320;-80
2021/07/10 10:01:32;;;;;;;2.40;1.15;;;27.40;97.20;;;;;;4997092;28;20585;-81
2021/07/10 10:03:59;;;;;;;1.88;1.20;;;26.90;98.00;;;;;;4997626;28;20206;-79
2021/07/10 10:06:33;;;;;;;1.75;1.23;;;26.90;99.40;;;;;;4997554;28;20202;-81
2021/07/10 10:09:02;;;;;;;2.65;1.23;;;27.10;99.10;;;;;;4996829;28;20221;-79
2021/07/10 10:11:50;;;;;;;2.33;1.42;;;26.90;98.50;;;;;;4997372;28;20213;-79
2021/07/10 10:14:17;;;;;;;4.20;1.48;;;27.00;98.50;;;;;;4996765;28;20214;-80
2021/07/10 10:16:47;;;;;;;2.05;1.08;;;27.20;98.70;;;;;;4996830;28;20210;-80
2021/07/10 10:19:16;;;;;;;2.60;1.10;;;27.30;97.70;;;;;;4997573;28;20223;-80
2021/07/10 10:21:44;;;;;;;1.20;0.90;;;27.30;96.70;;;;;;4997084;28;20214;-80
2021/07/10 10:24:12;;;;;;;4.22;1.80;;;27.10;98.40;;;;;;4997753;28;20210;-81
2021/07/10 10:26:38;;;;;;;3.78;1.15;;;27.10;98.30;;;;;;4997202;28;20217;-80
2021/07/10 10:29:06;;;;;;;1.50;0.90;;;27.20;97.30;;;;;;4997034;28;20230;-79
2021/07/10 10:31:33;;;;;;;2.60;1.50;;;27.20;97.80;;;;;;4986662;28;20213;-80
2021/07/10 10:34:01;;;;;;;2.83;1.38;;;27.30;97.30;;;;;;4987553;28;20211;-79
2021/07/10 10:36:28;;;;;;;3.17;1.50;;;27.20;97.70;;;;;;4986373;28;20213;-79
2021/07/10 10:38:55;;;;;;;1.67;1.00;;;27.10;97.50;;;;;;4985737;28;20233;-81
2021/07/10 10:41:22;;;;;;;2.20;1.10;;;27.00;98.10;;;;;;4984816;28;20204;-78
2021/07/10 10:43:54;;;;;;;2.38;1.05;;;26.90;96.90;;;;;;4989422;28;20206;-80
2021/07/10 10:46:23;;;;;;;1.85;1.27;;;26.90;99.40;;;;;;4987505;28;20215;-79
2021/07/10 10:48:51;;;;;;;2.00;1.00;;;27.20;99.40;;;;;;4983962;28;20235;-79
2021/07/10 10:51:28;;;;;;;2.22;1.50;;;27.10;97.70;;;;;;4989732;28;20203;-79
2021/07/10 10:54:24;;;;;;;2.63;1.30;;;27.20;98.30;;;;;;4988744;28;20214;-78
2021/07/10 10:56:51;;;;;;;2.58;1.42;;;27.10;97.80;;;;;;4984646;28;20214;-80
2021/07/10 10:59:37;;;;;;;1.20;0.82;;;27.10;98.70;;;;;;4984667;28;20631;-80
2021/07/10 11:02:24;;;;;;;1.80;1.20;;;27.30;98.80;;;;;;4986981;28;20215;-80
2021/07/10 11:05:04;;;;;;;2.20;1.17;;;27.00;98.60;;;;;;4990973;28;20205;-79
2021/07/10 11:07:33;;;;;;;1.67;1.10;;;26.80;98.00;;;;;;4984208;28;20569;-78
2021/07/10 11:10:15;;;;;;;1.83;1.10;;;27.10;98.00;;;;;;4986669;28;20233;-78
2021/07/10 11:12:56;;;;;;;1.52;1.27;;;27.40;96.70;;;;;;4982469;28;20713;-79
2021/07/10 11:15:43;;;;;;;2.08;1.40;;;27.50;95.50;;;;;;4984661;28;20213;-80
2021/07/10 11:18:27;;;;;;;1.73;1.17;;;27.80;96.00;;;;;;4988048;28;20293;-80
2021/07/10 11:20:56;;;;;;;2.25;1.40;;;28.00;96.40;;;;;;4980983;28;20218;-80
2021/07/10 11:23:30;;;;;;;2.20;1.50;;;28.00;96.40;;;;;;4988847;28;20203;-80
2021/07/10 11:26:06;;;;;;;2.35;1.13;;;28.10;96.20;;;;;;4992330;28;20214;-82
2021/07/10 11:28:42;;;;;;;2.10;1.40;;;27.40;96.20;;;;;;4984702;28;20203;-83
2021/07/10 11:31:12;;;;;;;1.60;1.08;;;26.50;97.60;;;;;;4986070;28;20209;-80
2021/07/10 11:34:15;;;;;;;2.03;1.40;;;26.10;97.40;;;;;;4984588;28;20238;-78
2021/07/10 11:36:58;;;;;;;3.55;1.40;;;26.10;97.80;;;;;;4986607;28;20694;-79
2021/07/10 11:39:48;;;;;;;3.28;1.42;;;26.30;98.00;;;;;;4987048;28;20222;-80
2021/07/10 11:42:44;;;;;;;5.80;1.48;;;26.30;99.60;;;;;;4984917;28;20209;-79
2021/07/10 11:45:20;;;;;;;1.67;1.02;;;26.00;98.60;;;;;;4990973;28;20290;-79
2021/07/10 11:47:50;;;;;;;1.55;1.08;;;25.80;98.40;;;;;;4987230;28;20260;-78
2021/07/10 11:50:19;;;;;;;3.10;1.60;;;25.90;99.20;;;;;;4992913;28;20230;-79
2021/07/10 11:52:59;;;;;;;2.33;1.20;;;25.90;99.10;;;;;;4987524;28;20230;-80
2021/07/10 11:55:28;;;;;;;1.75;1.30;;;26.30;98.40;;;;;;4983334;28;20657;-78
2021/07/10 11:57:55;;;;;;;3.00;1.20;;;26.60;98.70;;;;;;4978126;28;20211;-79
2021/07/10 12:00:24;;;;;;;3.05;1.60;;;26.80;97.50;;;;;;4983271;28;20318;-78
2021/07/10 12:02:52;;;;;;;1.83;1.30;;;27.00;97.20;;;;;;4982583;28;20207;-78
2021/07/10 12:05:20;;;;;;;2.83;1.38;;;27.30;96.60;;;;;;4985842;28;20665;-79
2021/07/10 12:07:50;;;;;;;2.00;1.23;;;27.20;96.70;;;;;;4989622;28;20217;-79
2021/07/10 12:10:22;;;;;;;2.85;1.58;;;26.80;97.20;;;;;;4987222;28;20708;-80
2021/07/10 12:12:51;;;;;;;1.90;1.20;;;26.30;98.20;;;;;;4981403;28;20235;-79
2021/07/10 12:15:20;;;;;;;1.77;1.30;;;26.10;99.30;;;;;;4979693;28;20203;-80
2021/07/10 12:17:48;;;;;;;2.03;1.30;;;26.10;99.00;;;;;;4986407;28;20742;-80
2021/07/10 12:20:16;;;;;;;3.17;1.45;;;26.20;98.50;;;;;;4986170;28;20968;-80
2021/07/10 12:22:52;;;;;;;2.00;1.13;;;26.30;97.80;;;;;;4987105;28;20212;-81
2021/07/10 12:25:22;;;;;;;2.42;1.50;;;26.20;98.70;;;;;;4978049;28;20207;-80
2021/07/10 12:27:54;;;;;;;2.97;1.38;;;26.00;99.30;;;;;;4980929;28;20208;-80
2021/07/10 12:30:48;;;;;;;1.90;1.40;;;25.70;98.80;;;;;;4981267;28;20238;-80
2021/07/10 12:33:31;;;;;;;1.58;1.27;;;25.80;98.90;;;;;;4983375;28;20597;-81
2021/07/10 12:36:07;;;;;;;1.88;1.00;;;26.10;98.80;;;;;;4984255;28;20230;-79
2021/07/10 12:38:35;;;;;;;2.13;1.27;;;26.00;99.90;;;;;;4987374;28;20238;-81
2021/07/10 12:41:25;;;;;;;3.60;1.40;;;25.80;98.60;;;;;;4984556;28;20561;-79
2021/07/10 12:43:52;;;;;;;1.92;1.50;;;25.20;99.50;;;;;;4984182;28;20681;-79
2021/07/10 12:46:19;;;;;;;2.90;1.20;;;25.20;99.90;;;;;;4985176;28;20218;-79
2021/07/10 12:48:46;;;;;;;1.42;1.17;;;25.10;99.80;;;;;;4985727;28;20705;-77
2021/07/10 12:51:14;;;;;;;2.55;1.33;;;25.20;99.90;;;;;;4983147;28;20546;-79
2021/07/10 12:53:44;;;;;;;1.67;1.13;;;25.40;99.90;;;;;;4985532;28;20242;-79
2021/07/10 12:56:23;;;;;;;3.35;1.88;;;25.50;99.90;;;;;;4980575;28;20207;-79
2021/07/10 12:58:52;;;;;;;2.42;1.30;;;25.40;99.90;;;;;;4986644;28;20230;-78
2021/07/10 13:01:24;;;;;;;2.05;1.10;;;25.60;99.90;;;;;;4981264;28;20653;-79
2021/07/10 13:03:53;;;;;;;3.72;1.40;;;26.00;99.90;;;;;;4982838;28;20210;-79
2021/07/10 13:06:19;;;;;;;2.45;1.33;;;26.30;99.30;;;;;;4983695;28;20206;-79
2021/07/10 13:08:51;;;;;;;1.58;1.13;;;26.50;99.80;;;;;;4983285;28;20229;-79
2021/07/10 13:11:18;;;;;;;1.83;1.15;;;26.70;99.40;;;;;;4985655;28;20207;-78
2021/07/10 13:13:50;;;;;;;2.15;1.45;;;26.70;98.40;;;;;;4984059;28;20230;-79
2021/07/10 13:16:19;;;;;;;2.20;1.30;;;26.60;97.70;;;;;;4990883;28;20550;-80
2021/07/10 13:18:48;;;;;;;1.83;1.15;;;26.40;98.60;;;;;;4980780;28;20231;-78
2021/07/10 13:21:19;;;;;;;2.28;1.48;;;26.10;98.60;;;;;;4986112;28;20202;-79
2021/07/10 13:23:51;;;;;;;3.33;1.40;;;26.00;99.40;;;;;;4976147;28;20218;-79
2021/07/10 13:26:21;;;;;;;3.17;1.30;;;26.00;99.10;;;;;;4980991;28;20214;-79
2021/07/10 13:28:50;;;;;;;3.78;1.55;;;26.00;99.40;;;;;;4987071;28;20228;-79
2021/07/10 13:31:24;;;;;;;2.13;1.52;;;25.70;99.90;;;;;;4976271;28;20217;-80
2021/07/10 13:33:55;;;;;;;4.20;1.63;;;25.50;99.90;;;;;;4972675;28;20237;-79
2021/07/10 13:36:24;;;;;;;1.50;1.30;;;25.50;99.90;;;;;;4974137;28;20207;-79
2021/07/10 13:38:53;;;;;;;2.33;1.15;;;25.40;99.90;;;;;;4973998;28;20234;-79
2021/07/10 13:41:27;;;;;;;1.85;1.33;;;25.20;99.90;;;;;;4974337;28;20203;-78
2021/07/10 13:44:11;;;;;;;2.70;1.45;;;24.90;99.90;;;;;;4974612;28;20211;-80
2021/07/10 13:46:42;;;;;;;3.13;1.48;;;24.50;99.90;;;;;;4974225;28;20216;-79
2021/07/10 13:49:37;;;;;;;2.13;1.30;;;24.10;99.90;;;;;;4973728;28;20235;-79
2021/07/10 13:52:21;;;;;;;2.08;1.52;;;23.70;99.90;;;;;;4974181;28;20204;-78
2021/07/10 13:54:50;;;;;;;4.47;2.10;;;23.20;99.90;;;;;;4974131;28;20293;-78
2021/07/10 13:57:31;;;;;;;3.95;2.15;;;22.80;99.90;;;;;;4973261;28;20685;-78
2021/07/10 14:00:13;;;;;;;3.72;2.22;;;22.40;99.90;;;;;;4973062;28;20805;-77
2021/07/10 14:02:44;;;;;;;4.97;2.45;;;22.10;99.90;;;;;;4973845;28;20211;-78
2021/07/10 14:05:14;;;;;;;4.25;2.20;;;21.90;99.90;;;;;;4973853;28;20209;-78
2021/07/10 14:07:45;;;;;;;2.85;1.80;;;21.40;99.90;;;;;;4973859;28;20207;-77
2021/07/10 14:10:16;;;;;;;4.28;2.25;;;21.20;99.90;;;;;;4973621;28;20227;-78
2021/07/10 14:12:43;;;;;;;3.20;2.33;;;21.00;99.90;;;;;;4973942;28;20218;-78
2021/07/10 14:15:12;;;;;;;2.80;1.92;;;21.00;99.90;;;;;;4973587;28;20218;-78
2021/07/10 14:17:39;;;;;;;4.00;2.05;;;20.80;99.90;;;;;;4973851;28;20214;-78
2021/07/10 14:20:11;;;;;;;4.60;2.67;;;20.80;99.90;;;;;;4973561;28;20227;-78
2021/07/10 14:22:38;;;;;;;3.55;2.65;;;20.90;99.90;;;;;;4973768;28;20211;-78
2021/07/10 14:25:07;;;;;;;5.37;2.47;;;20.90;99.90;;;;;;4974376;28;20667;-78
2021/07/10 14:27:34;;;;;;;3.58;2.10;;;20.70;99.90;;;;;;4973971;28;20208;-77
2021/07/10 14:30:01;;;;;;;5.20;2.47;;;20.60;99.90;;;;;;4974117;28;20245;-77
2021/07/10 14:32:28;;;;;;;5.28;2.67;;;20.40;99.90;;;;;;4977333;28;20215;-77
2021/07/10 14:34:56;;;;;;;8.57;3.20;;;20.20;99.90;;;;;;4976793;28;20231;-77
2021/07/10 14:37:26;;;;;;;3.63;2.43;;;20.20;99.90;;;;;;4977208;28;20654;-78
2021/07/10 14:39:52;;;;;;;4.40;2.83;;;20.10;99.90;;;;;;4977284;28;20235;-76
2021/07/10 14:42:19;;;;;;;4.77;2.90;;;20.10;99.90;;;;;;4977188;28;20211;-76
2021/07/10 14:44:47;;;;;;;6.90;3.30;;;20.00;99.90;;;;;;4977546;28;20207;-78
2021/07/10 14:47:15;;;;;;;4.23;2.77;;;19.90;99.90;;;;;;4976981;28;20203;-76
2021/07/10 14:49:42;;;;;;;4.97;2.73;;;19.90;99.90;;;;;;4976373;28;20318;-78
2021/07/10 14:52:10;;;;;;;5.90;3.00;;;19.70;99.90;;;;;;4976957;28;20215;-77
2021/07/10 14:54:39;;;;;;;5.77;3.00;;;19.60;99.90;;;;;;4976681;28;20231;-76
2021/07/10 14:57:06;;;;;;;3.97;2.40;;;19.50;99.90;;;;;;4986636;28;20207;-76
2021/07/10 14:59:33;;;;;;;4.43;2.70;;;19.50;99.90;;;;;;4996337;28;20229;-77
2021/07/10 15:02:01;;;;;;;5.33;2.40;;;19.50;99.90;;;;;;4996404;28;20202;-76
2021/07/10 15:04:28;;;;;;;6.37;2.63;;;19.30;99.90;;;;;;4995868;28;20206;-74
2021/07/10 15:06:55;;;;;;;4.57;2.00;;;19.30;99.90;;;;;;4996053;28;20206;-75
2021/07/10 15:09:22;;;;;;;4.90;2.33;;;19.10;99.90;;;;;;4995616;28;20237;-75
2021/07/10 15:11:50;;;;;;;2.77;1.80;;;19.10;99.90;;;;;;4994717;28;20657;-76
2021/07/10 15:14:17;;;;;;;3.93;1.93;;;19.10;99.90;;;;;;4995758;28;20238;-75
2021/07/10 15:16:44;;;;;;;3.20;1.90;;;19.00;99.90;;;;;;4996041;28;20218;-76
2021/07/10 15:19:11;;;;;;;4.10;1.90;;;19.00;99.90;;;;;;4995358;28;20725;-76
2021/07/10 15:21:38;;;;;;;4.13;1.90;;;19.00;99.90;;;;;;4995860;28;20213;-76
2021/07/10 15:24:05;;;;;;;4.30;1.83;;;19.00;99.90;;;;;;4995982;28;20205;-76
2021/07/10 15:26:32;;;;;;;5.67;2.20;;;18.90;99.90;;;;;;4995129;28;20213;-76
2021/07/10 15:29:02;;;;;;;3.97;1.87;;;18.90;99.90;;;;;;4996601;28;20293;-75
